createdAt,value
2018-07-01T00:00:21.413Z,44.46
2018-07-01T00:01:21.419Z,44.46
2018-07-01T00:03:14.349Z,44.08
2018-07-01T00:04:14.373Z,44.56
2018-07-01T00:06:07.321Z,44.75
2018-07-01T00:07:07.326Z,44.75
2018-07-01T00:09:00.273Z,44.65
2018-07-01T00:10:00.283Z,44.46
2018-07-01T00:11:53.722Z,44.84
2018-07-01T00:12:53.752Z,44.46
2018-07-01T00:14:46.695Z,44.63
2018-07-01T00:15:46.700Z,45.50
2018-07-01T00:17:39.631Z,44.92
2018-07-01T00:18:39.653Z,44.92
2018-07-01T00:20:32.605Z,45.01
2018-07-01T00:21:32.608Z,45.30
2018-07-01T00:23:25.553Z,45.11
2018-07-01T00:24:25.569Z,45.30
2018-07-01T00:26:18.517Z,45.68
2018-07-01T00:27:18.515Z,45.68
2018-07-01T00:29:11.958Z,45.68
2018-07-01T00:30:11.986Z,45.59
2018-07-01T00:32:04.934Z,45.88
2018-07-01T00:33:04.940Z,45.98
2018-07-01T00:34:57.865Z,46.55
2018-07-01T00:35:57.891Z,46.55
2018-07-01T00:37:50.838Z,46.65
2018-07-01T00:38:50.845Z,46.62
2018-07-01T00:40:43.792Z,46.34
2018-07-01T00:41:43.799Z,46.43
2018-07-01T00:43:36.729Z,46.72
2018-07-01T00:44:36.758Z,46.62
2018-07-01T00:46:29.700Z,47.20
2018-07-01T00:47:29.710Z,46.91
2018-07-01T00:49:22.639Z,47.01
2018-07-01T00:50:22.663Z,47.20
2018-07-01T00:52:15.612Z,47.30
2018-07-01T00:53:15.615Z,47.39
2018-07-01T00:55:10.088Z,47.58
2018-07-01T00:56:10.109Z,47.30
2018-07-01T00:58:03.062Z,47.97
2018-07-01T00:59:03.065Z,48.16
2018-07-01T01:00:56.530Z,48.44
2018-07-01T01:01:56.526Z,48.35
2018-07-01T01:03:49.461Z,48.16
2018-07-01T01:04:49.479Z,48.54
2018-07-01T01:06:42.428Z,48.07
2018-07-01T01:07:42.439Z,48.43
2018-07-01T01:09:35.877Z,48.23
2018-07-01T01:10:35.900Z,48.33
2018-07-01T01:12:28.854Z,48.43
2018-07-01T01:13:28.853Z,48.61
2018-07-01T01:15:23.323Z,48.61
2018-07-01T01:16:23.346Z,48.71
2018-07-01T01:18:17.318Z,48.90
2018-07-01T01:19:17.324Z,48.52
2018-07-01T01:21:10.252Z,49.10
2018-07-01T01:22:10.276Z,49.19
2018-07-01T01:24:03.224Z,49.00
2018-07-01T01:25:03.230Z,49.19
2018-07-01T01:26:56.692Z,49.29
2018-07-01T01:27:56.698Z,49.00
2018-07-01T01:29:49.626Z,49.10
2018-07-01T01:30:49.651Z,49.10
2018-07-01T01:32:42.610Z,49.29
2018-07-01T01:33:42.603Z,49.29
2018-07-01T01:35:35.546Z,49.19
2018-07-01T01:36:35.561Z,49.10
2018-07-01T01:38:28.510Z,48.97
2018-07-01T01:39:28.540Z,48.88
2018-07-01T01:41:21.447Z,48.97
2018-07-01T01:42:21.467Z,48.69
2018-07-01T01:44:14.416Z,48.43
2018-07-01T01:45:14.421Z,48.13
2018-07-01T01:47:07.354Z,48.23
2018-07-01T01:48:07.374Z,48.13
2018-07-01T01:50:00.325Z,48.23
2018-07-01T01:51:00.328Z,48.33
2018-07-01T01:52:53.280Z,48.33
2018-07-01T01:53:53.285Z,48.33
2018-07-01T01:55:46.213Z,48.33
2018-07-01T01:56:46.244Z,48.33
2018-07-01T01:58:39.187Z,48.43
2018-07-01T01:59:39.189Z,48.13
2018-07-01T02:01:32.124Z,47.75
2018-07-01T02:02:32.149Z,48.04
2018-07-01T02:04:25.095Z,47.75
2018-07-01T02:05:25.101Z,47.75
2018-07-01T02:07:18.039Z,47.56
2018-07-01T02:08:18.055Z,47.66
2018-07-01T02:10:11.003Z,48.13
2018-07-01T02:11:11.009Z,47.97
2018-07-01T02:13:03.937Z,48.23
2018-07-01T02:14:03.963Z,48.25
2018-07-01T02:15:56.932Z,48.33
2018-07-01T02:16:56.916Z,48.33
2018-07-01T02:18:49.865Z,48.43
2018-07-01T02:19:49.870Z,48.33
2018-07-01T02:21:42.801Z,48.23
2018-07-01T02:22:42.826Z,48.04
2018-07-01T02:24:35.775Z,48.13
2018-07-01T02:25:35.776Z,48.33
2018-07-01T02:27:28.707Z,48.61
2018-07-01T02:28:28.733Z,48.71
2018-07-01T02:30:21.682Z,48.61
2018-07-01T02:31:21.687Z,48.61
2018-07-01T02:33:14.618Z,48.61
2018-07-01T02:34:14.643Z,48.43
2018-07-01T02:36:07.593Z,48.71
2018-07-01T02:37:07.594Z,48.80
2018-07-01T02:39:00.547Z,49.10
2018-07-01T02:40:00.547Z,48.61
2018-07-01T02:41:53.484Z,48.71
2018-07-01T02:42:53.504Z,49.00
2018-07-01T02:44:46.452Z,48.80
2018-07-01T02:45:46.457Z,48.80
2018-07-01T02:47:39.391Z,49.10
2018-07-01T02:48:39.412Z,48.80
2018-07-01T02:50:32.361Z,49.29
2018-07-01T02:51:32.365Z,49.45
2018-07-01T02:53:25.297Z,49.55
2018-07-01T02:54:25.337Z,49.26
2018-07-01T02:56:18.268Z,49.45
2018-07-01T02:57:18.273Z,49.74
2018-07-01T02:59:11.252Z,49.26
2018-07-01T03:00:11.234Z,49.84
2018-07-01T03:02:04.162Z,49.36
2018-07-01T03:03:04.183Z,49.74
2018-07-01T03:04:58.688Z,49.84
2018-07-01T03:05:58.689Z,50.12
2018-07-01T03:07:52.114Z,50.32
2018-07-01T03:08:52.136Z,50.51
2018-07-01T03:10:45.094Z,50.41
2018-07-01T03:11:45.095Z,50.22
2018-07-01T03:13:38.030Z,50.41
2018-07-01T03:14:38.049Z,50.32
2018-07-01T03:16:31.509Z,50.32
2018-07-01T03:17:31.512Z,50.41
2018-07-01T03:19:24.977Z,50.22
2018-07-01T03:20:24.980Z,50.32
2018-07-01T03:22:17.906Z,50.51
2018-07-01T03:23:17.916Z,50.51
2018-07-01T03:25:10.884Z,50.41
2018-07-01T03:26:10.886Z,50.12
2018-07-01T03:28:03.862Z,49.84
2018-07-01T03:29:03.843Z,50.12
2018-07-01T03:30:57.306Z,50.12
2018-07-01T03:31:57.310Z,50.03
2018-07-01T03:33:50.243Z,49.93
2018-07-01T03:34:50.263Z,49.93
2018-07-01T03:36:43.213Z,50.12
2018-07-01T03:37:43.219Z,50.51
2018-07-01T03:39:36.171Z,50.24
2018-07-01T03:40:36.174Z,49.84
2018-07-01T03:42:29.105Z,50.03
2018-07-01T03:43:29.128Z,50.22
2018-07-01T03:45:22.059Z,50.51
2018-07-01T03:46:22.060Z,50.32
2018-07-01T03:48:14.973Z,50.24
2018-07-01T03:49:14.991Z,49.79
2018-07-01T03:51:07.927Z,48.57
2018-07-01T03:52:07.935Z,47.72
2018-07-01T03:54:05.976Z,46.02
2018-07-01T03:55:05.962Z,45.56
2018-07-01T03:56:58.910Z,43.97
2018-07-01T03:57:58.915Z,42.82
2018-07-01T03:59:51.847Z,41.89
2018-07-01T04:00:51.869Z,40.28
2018-07-01T04:02:47.891Z,38.85
2018-07-01T04:03:47.897Z,38.49
2018-07-01T04:05:40.849Z,37.15
2018-07-01T04:06:40.852Z,36.01
2018-07-01T04:08:33.780Z,36.03
2018-07-01T04:09:33.807Z,35.16
2018-07-01T04:11:26.755Z,34.31
2018-07-01T04:12:26.764Z,34.33
2018-07-01T04:14:19.692Z,32.99
2018-07-01T04:15:19.714Z,32.79
2018-07-01T04:17:12.661Z,32.52
2018-07-01T04:18:12.674Z,31.84
2018-07-01T04:20:05.700Z,32.14
2018-07-01T04:21:05.727Z,31.26
2018-07-01T04:22:58.774Z,31.37
2018-07-01T04:23:58.786Z,31.28
2018-07-01T04:25:51.832Z,30.71
2018-07-01T04:26:51.843Z,30.13
2018-07-01T04:28:44.768Z,30.13
2018-07-01T04:29:44.796Z,29.85
2018-07-01T04:31:37.746Z,29.66
2018-07-01T04:32:37.751Z,29.36
2018-07-01T04:34:30.781Z,30.24
2018-07-01T04:35:30.808Z,30.15
2018-07-01T04:37:24.266Z,29.57
2018-07-01T04:38:24.275Z,28.98
2018-07-01T04:40:17.711Z,29.10
2018-07-01T04:41:17.741Z,29.10
2018-07-01T04:43:10.788Z,28.13
2018-07-01T04:44:10.803Z,28.70
2018-07-01T04:46:03.850Z,29.00
2018-07-01T04:47:03.857Z,28.81
2018-07-01T04:48:56.882Z,28.15
2018-07-01T04:49:56.912Z,27.29
2018-07-01T04:51:50.022Z,26.82
2018-07-01T04:52:49.980Z,26.43
2018-07-01T04:54:42.994Z,25.76
2018-07-01T04:55:43.024Z,26.15
2018-07-01T04:57:36.071Z,25.20
2018-07-01T04:58:36.083Z,24.82
2018-07-01T05:00:29.114Z,25.21
2018-07-01T05:01:29.140Z,24.44
2018-07-01T05:03:22.184Z,23.66
2018-07-01T05:04:22.198Z,24.13
2018-07-01T05:06:15.225Z,24.71
2018-07-01T05:07:15.255Z,25.37
2018-07-01T05:09:08.302Z,25.85
2018-07-01T05:10:08.311Z,25.84
2018-07-01T05:12:01.356Z,26.03
2018-07-01T05:13:01.372Z,25.95
2018-07-01T05:14:54.391Z,25.67
2018-07-01T05:15:54.424Z,25.05
2018-07-01T05:17:47.467Z,26.03
2018-07-01T05:18:47.485Z,26.32
2018-07-01T05:20:40.513Z,26.40
2018-07-01T05:21:40.541Z,26.50
2018-07-01T05:23:33.583Z,26.60
2018-07-01T05:24:33.597Z,27.08
2018-07-01T05:26:26.638Z,26.21
2018-07-01T05:27:26.680Z,26.40
2018-07-01T05:29:19.693Z,26.87
2018-07-01T05:30:19.709Z,27.18
2018-07-01T05:32:12.751Z,26.51
2018-07-01T05:33:12.768Z,26.12
2018-07-01T05:35:05.791Z,26.22
2018-07-01T05:36:05.822Z,26.12
2018-07-01T05:37:59.376Z,26.39
2018-07-01T05:38:59.397Z,27.17
2018-07-01T05:40:52.417Z,27.07
2018-07-01T05:41:52.447Z,27.35
2018-07-01T05:43:45.487Z,28.30
2018-07-01T05:44:45.503Z,28.22
2018-07-01T05:46:38.535Z,27.45
2018-07-01T05:47:38.567Z,27.54
2018-07-01T05:49:31.741Z,27.26
2018-07-01T05:50:31.614Z,26.97
2018-07-01T05:52:24.660Z,26.60
2018-07-01T05:53:24.674Z,26.22
2018-07-01T05:55:17.698Z,26.32
2018-07-01T05:56:17.728Z,25.93
2018-07-01T05:58:10.770Z,26.38
2018-07-01T05:59:10.785Z,27.14
2018-07-01T06:01:03.809Z,28.02
2018-07-01T06:02:03.844Z,28.19
2018-07-01T06:03:56.885Z,28.30
2018-07-01T06:04:56.905Z,28.20
2018-07-01T06:06:49.922Z,28.11
2018-07-01T06:07:49.958Z,27.93
2018-07-01T06:09:43.000Z,27.36
2018-07-01T06:10:43.013Z,27.36
2018-07-01T06:12:36.063Z,27.18
2018-07-01T06:13:36.071Z,26.89
2018-07-01T06:15:29.095Z,26.39
2018-07-01T06:16:29.222Z,26.96
2018-07-01T06:18:22.169Z,27.06
2018-07-01T06:19:22.183Z,27.43
2018-07-01T06:21:15.127Z,27.35
2018-07-01T06:22:15.158Z,27.35
2018-07-01T06:24:08.689Z,27.35
2018-07-01T06:25:08.704Z,27.83
2018-07-01T06:27:03.161Z,28.03
2018-07-01T06:28:03.198Z,27.07
2018-07-01T06:29:56.754Z,26.39
2018-07-01T06:30:56.770Z,26.96
2018-07-01T06:32:49.839Z,27.15
2018-07-01T06:33:49.822Z,27.26
2018-07-01T06:35:43.357Z,27.26
2018-07-01T06:36:43.392Z,26.60
2018-07-01T06:38:36.429Z,26.78
2018-07-01T06:39:36.445Z,26.68
2018-07-01T06:41:29.979Z,27.26
2018-07-01T06:42:30.015Z,27.06
2018-07-01T06:44:23.054Z,27.15
2018-07-01T06:45:23.071Z,27.45
2018-07-01T06:47:16.094Z,27.25
2018-07-01T06:48:16.128Z,27.45
2018-07-01T06:50:09.168Z,27.15
2018-07-01T06:51:09.182Z,26.65
2018-07-01T06:53:02.720Z,27.11
2018-07-01T06:54:02.757Z,28.75
2018-07-01T06:55:55.794Z,29.44
2018-07-01T06:56:55.808Z,29.15
2018-07-01T06:58:49.365Z,28.38
2018-07-01T06:59:49.377Z,27.98
2018-07-01T07:01:42.911Z,28.07
2018-07-01T07:02:42.980Z,28.38
2018-07-01T07:04:35.989Z,28.26
2018-07-01T07:05:36.003Z,28.36
2018-07-01T07:07:29.997Z,29.12
2018-07-01T07:08:29.981Z,29.39
2018-07-01T07:10:23.029Z,30.28
2018-07-01T07:11:23.041Z,29.50
2018-07-01T07:13:16.979Z,28.34
2018-07-01T07:14:17.015Z,28.15
2018-07-01T07:16:10.118Z,28.34
2018-07-01T07:17:10.072Z,28.26
2018-07-01T07:19:03.095Z,28.07
2018-07-01T07:20:03.131Z,27.60
2018-07-01T07:21:56.687Z,28.47
2018-07-01T07:22:56.703Z,27.60
2018-07-01T07:24:51.179Z,27.60
2018-07-01T07:25:51.192Z,27.70
2018-07-01T07:27:44.207Z,27.89
2018-07-01T07:28:44.244Z,28.18
2018-07-01T07:30:37.286Z,27.42
2018-07-01T07:31:37.366Z,27.31
2018-07-01T07:33:30.836Z,27.79
2018-07-01T07:34:30.869Z,28.09
2018-07-01T07:36:23.910Z,27.50
2018-07-01T07:37:23.921Z,28.45
2018-07-01T07:39:16.950Z,28.25
2018-07-01T07:40:16.982Z,27.86
2018-07-01T07:42:10.021Z,28.34
2018-07-01T07:43:10.036Z,27.96
2018-07-01T07:45:03.138Z,28.91
2018-07-01T07:46:03.088Z,29.22
2018-07-01T07:47:56.113Z,28.45
2018-07-01T07:48:56.145Z,27.97
2018-07-01T07:50:49.706Z,27.09
2018-07-01T07:51:49.713Z,26.99
2018-07-01T07:53:50.217Z,27.09
2018-07-01T07:54:50.245Z,26.62
2018-07-01T07:56:48.206Z,25.93
2018-07-01T07:57:48.220Z,26.40
2018-07-01T07:59:42.674Z,26.68
2018-07-01T08:00:42.702Z,26.88
2018-07-01T08:02:35.755Z,26.70
2018-07-01T08:03:35.762Z,26.10
2018-07-01T08:05:38.712Z,26.01
2018-07-01T08:06:38.714Z,26.30
2018-07-01T08:08:31.634Z,26.40
2018-07-01T08:09:31.659Z,26.01
2018-07-01T08:11:24.601Z,26.67
2018-07-01T08:12:24.608Z,25.99
2018-07-01T08:14:17.530Z,25.81
2018-07-01T08:15:17.558Z,25.81
2018-07-01T08:17:10.498Z,25.99
2018-07-01T08:18:10.505Z,26.77
2018-07-01T08:20:10.543Z,26.77
2018-07-01T08:21:03.450Z,26.18
2018-07-01T08:22:56.885Z,26.77
2018-07-01T08:23:56.894Z,26.39
2018-07-01T08:25:49.812Z,26.59
2018-07-01T08:26:49.846Z,26.40
2018-07-01T08:28:42.783Z,25.92
2018-07-01T08:29:49.902Z,26.98
2018-07-01T08:31:42.898Z,26.50
2018-07-01T08:32:35.785Z,26.10
2018-07-01T08:34:28.752Z,26.10
2018-07-01T08:35:35.853Z,26.88
2018-07-01T08:37:28.796Z,27.09
2018-07-01T08:38:21.685Z,25.54
2018-07-01T08:40:14.651Z,26.70
2018-07-01T08:41:14.632Z,25.93
2018-07-01T08:43:07.570Z,25.15
2018-07-01T08:44:07.581Z,25.07
2018-07-01T08:46:00.502Z,24.68
2018-07-01T08:47:00.526Z,24.68
2018-07-01T08:48:53.469Z,24.29
2018-07-01T08:49:53.476Z,23.23
2018-07-01T08:51:46.423Z,23.80
2018-07-01T08:52:46.432Z,23.80
2018-07-01T08:54:39.345Z,24.57
2018-07-01T08:55:39.372Z,24.57
2018-07-01T08:57:32.442Z,25.05
2018-07-01T08:58:32.450Z,26.31
2018-07-01T09:00:26.365Z,25.07
2018-07-01T09:01:26.392Z,24.19
2018-07-01T09:03:26.454Z,24.39
2018-07-01T09:04:19.335Z,24.10
2018-07-01T09:06:12.255Z,25.05
2018-07-01T09:07:12.283Z,25.05
2018-07-01T09:09:05.221Z,26.21
2018-07-01T09:10:05.227Z,25.55
2018-07-01T09:11:58.152Z,25.26
2018-07-01T09:12:58.176Z,24.98
2018-07-01T09:14:51.114Z,22.65
2018-07-01T09:15:51.147Z,23.71
2018-07-01T09:17:44.080Z,23.05
2018-07-01T09:18:44.086Z,22.94
2018-07-01T09:20:37.012Z,22.94
2018-07-01T09:21:37.031Z,23.12
2018-07-01T09:23:29.989Z,23.80
2018-07-01T09:24:29.980Z,23.12
2018-07-01T09:26:22.900Z,22.92
2018-07-01T09:27:22.930Z,22.92
2018-07-01T09:29:15.873Z,23.69
2018-07-01T09:30:15.876Z,23.40
2018-07-01T09:32:08.801Z,23.69
2018-07-01T09:33:08.829Z,24.17
2018-07-01T09:35:01.776Z,24.93
2018-07-01T09:36:01.781Z,24.84
2018-07-01T09:37:54.718Z,26.01
2018-07-01T09:38:54.726Z,25.43
2018-07-01T09:40:47.649Z,25.13
2018-07-01T09:41:47.670Z,25.03
2018-07-01T09:43:40.615Z,25.61
2018-07-01T09:44:40.624Z,25.99
2018-07-01T09:46:33.536Z,25.99
2018-07-01T09:47:33.565Z,26.29
2018-07-01T09:49:26.497Z,25.62
2018-07-01T09:50:26.544Z,25.62
2018-07-01T09:52:19.429Z,25.14
2018-07-01T09:53:19.451Z,25.14
2018-07-01T09:55:13.586Z,26.01
2018-07-01T09:56:13.594Z,25.93
2018-07-01T09:58:06.534Z,25.05
2018-07-01T09:59:06.538Z,26.12
2018-07-01T10:00:59.491Z,25.44
2018-07-01T10:01:59.488Z,25.15
2018-07-01T10:03:52.424Z,25.14
2018-07-01T10:04:52.434Z,25.34
2018-07-01T10:06:45.353Z,26.01
2018-07-01T10:07:45.379Z,26.12
2018-07-01T10:09:38.330Z,26.30
2018-07-01T10:10:38.326Z,26.41
2018-07-01T10:12:31.247Z,25.54
2018-07-01T10:13:31.282Z,25.83
2018-07-01T10:15:24.214Z,25.65
2018-07-01T10:16:24.222Z,26.14
2018-07-01T10:18:17.144Z,25.54
2018-07-01T10:19:17.171Z,26.32
2018-07-01T10:21:10.110Z,24.09
2018-07-01T10:22:10.119Z,23.50
2018-07-01T10:24:03.065Z,24.37
2018-07-01T10:25:03.066Z,24.85
2018-07-01T10:26:55.989Z,24.96
2018-07-01T10:27:56.015Z,24.18
2018-07-01T10:29:48.953Z,24.48
2018-07-01T10:30:48.961Z,24.96
2018-07-01T10:32:41.876Z,24.67
2018-07-01T10:33:41.902Z,24.57
2018-07-01T10:35:34.841Z,23.33
2018-07-01T10:36:34.850Z,23.13
2018-07-01T10:38:27.764Z,23.02
2018-07-01T10:39:27.798Z,23.12
2018-07-01T10:41:20.730Z,22.54
2018-07-01T10:42:20.743Z,22.92
2018-07-01T10:44:13.688Z,23.21
2018-07-01T10:45:13.689Z,23.58
2018-07-01T10:47:06.636Z,23.79
2018-07-01T10:48:06.632Z,24.37
2018-07-01T10:49:59.579Z,23.12
2018-07-01T10:50:59.580Z,23.02
2018-07-01T10:52:52.720Z,22.43
2018-07-01T10:53:52.553Z,22.82
2018-07-01T10:55:45.513Z,23.01
2018-07-01T10:56:45.520Z,23.32
2018-07-01T10:58:38.444Z,22.72
2018-07-01T10:59:38.468Z,22.82
2018-07-01T11:01:31.618Z,23.02
2018-07-01T11:02:31.626Z,23.02
2018-07-01T11:04:24.547Z,22.44
2018-07-01T11:05:24.574Z,22.34
2018-07-01T11:07:17.512Z,22.92
2018-07-01T11:08:17.522Z,22.44
2018-07-01T11:10:10.465Z,23.02
2018-07-01T11:11:10.466Z,22.64
2018-07-01T11:13:03.385Z,22.92
2018-07-01T11:14:03.413Z,22.74
2018-07-01T11:15:56.362Z,23.03
2018-07-01T11:16:56.458Z,22.94
2018-07-01T11:18:49.293Z,22.65
2018-07-01T11:19:49.317Z,21.88
2018-07-01T11:21:42.263Z,22.45
2018-07-01T11:22:42.276Z,22.45
2018-07-01T11:24:35.202Z,22.92
2018-07-01T11:25:35.209Z,23.22
2018-07-01T11:27:29.262Z,23.22
2018-07-01T11:28:29.165Z,22.82
2018-07-01T11:30:22.085Z,23.50
2018-07-01T11:31:22.153Z,23.50
2018-07-01T11:33:15.048Z,24.17
2018-07-01T11:34:15.056Z,24.18
2018-07-01T11:36:07.993Z,24.18
2018-07-01T11:37:08.011Z,23.99
2018-07-01T11:39:00.918Z,23.52
2018-07-01T11:40:00.951Z,23.42
2018-07-01T11:41:53.900Z,22.74
2018-07-01T11:42:53.911Z,23.02
2018-07-01T11:44:46.836Z,23.02
2018-07-01T11:45:46.860Z,23.12
2018-07-01T11:47:39.807Z,24.77
2018-07-01T11:48:39.808Z,24.38
2018-07-01T11:50:32.734Z,23.32
2018-07-01T11:51:32.769Z,23.12
2018-07-01T11:53:25.920Z,23.12
2018-07-01T11:54:25.928Z,23.80
2018-07-01T11:56:18.851Z,23.41
2018-07-01T11:57:18.881Z,23.90
2018-07-01T11:59:11.818Z,24.57
2018-07-01T12:00:11.827Z,24.28
2018-07-01T12:02:04.764Z,24.57
2018-07-01T12:03:04.773Z,24.67
2018-07-01T12:05:16.210Z,24.86
2018-07-01T12:05:57.715Z,24.97
2018-07-01T12:07:50.674Z,24.97
2018-07-01T12:08:50.681Z,24.68
2018-07-01T12:10:43.605Z,24.57
2018-07-01T12:11:43.631Z,24.77
2018-07-01T12:13:36.577Z,24.68
2018-07-01T12:14:36.578Z,24.58
2018-07-01T12:16:29.507Z,24.49
2018-07-01T12:17:29.533Z,24.40
2018-07-01T12:19:23.467Z,23.33
2018-07-01T12:20:23.476Z,23.33
2018-07-01T12:22:16.418Z,24.77
2018-07-01T12:23:16.438Z,24.57
2018-07-01T12:25:09.345Z,24.67
2018-07-01T12:26:09.377Z,25.15
2018-07-01T12:28:02.313Z,25.63
2018-07-01T12:29:02.322Z,25.44
2018-07-01T12:30:55.242Z,25.94
2018-07-01T12:31:55.264Z,25.16
2018-07-01T12:33:48.204Z,25.07
2018-07-01T12:34:48.270Z,25.08
2018-07-01T12:36:41.130Z,25.08
2018-07-01T12:37:41.172Z,25.08
2018-07-01T12:39:34.102Z,24.60
2018-07-01T12:40:34.099Z,24.03
2018-07-01T12:42:27.111Z,24.69
2018-07-01T12:43:27.050Z,25.27
2018-07-01T12:45:19.998Z,25.18
2018-07-01T12:46:19.999Z,25.27
2018-07-01T12:48:12.949Z,25.56
2018-07-01T12:49:12.945Z,25.08
2018-07-01T12:51:05.869Z,25.37
2018-07-01T12:52:05.898Z,25.08
2018-07-01T12:53:58.841Z,24.98
2018-07-01T12:54:58.846Z,25.08
2018-07-01T12:56:51.814Z,25.85
2018-07-01T12:57:51.795Z,25.08
2018-07-01T12:59:45.738Z,25.08
2018-07-01T13:00:45.763Z,24.69
2018-07-01T13:02:38.716Z,25.18
2018-07-01T13:03:38.703Z,24.98
2018-07-01T13:05:32.281Z,25.08
2018-07-01T13:06:32.226Z,24.98
2018-07-01T13:08:26.054Z,25.27
2018-07-01T13:09:25.816Z,26.05
2018-07-01T13:11:18.716Z,25.66
2018-07-01T13:12:18.770Z,25.19
2018-07-01T13:14:11.686Z,25.09
2018-07-01T13:15:11.693Z,24.88
2018-07-01T13:17:04.620Z,25.08
2018-07-01T13:18:04.645Z,25.95
2018-07-01T13:19:57.582Z,25.95
2018-07-01T13:20:57.618Z,25.56
2018-07-01T13:22:50.513Z,25.96
2018-07-01T13:23:50.538Z,25.19
2018-07-01T13:25:43.534Z,24.90
2018-07-01T13:26:43.490Z,24.90
2018-07-01T13:28:36.415Z,25.18
2018-07-01T13:29:36.439Z,24.88
2018-07-01T13:31:29.510Z,24.98
2018-07-01T13:32:29.440Z,24.88
2018-07-01T13:34:22.347Z,24.68
2018-07-01T13:35:22.352Z,25.16
2018-07-01T13:37:15.444Z,25.18
2018-07-01T13:38:15.489Z,25.76
2018-07-01T13:40:08.383Z,26.34
2018-07-01T13:41:08.391Z,25.18
2018-07-01T13:43:01.357Z,25.19
2018-07-01T13:44:01.386Z,25.29
2018-07-01T13:45:54.285Z,25.67
2018-07-01T13:46:54.289Z,25.20
2018-07-01T13:48:47.289Z,24.91
2018-07-01T13:49:47.312Z,24.33
2018-07-01T13:51:40.198Z,23.46
2018-07-01T13:52:40.204Z,23.55
2018-07-01T13:54:33.154Z,24.13
2018-07-01T13:55:33.151Z,24.23
2018-07-01T13:57:26.102Z,23.65
2018-07-01T13:58:26.104Z,23.74
2018-07-01T14:00:19.054Z,24.12
2018-07-01T14:01:19.057Z,24.61
2018-07-01T14:03:11.982Z,25.29
2018-07-01T14:04:12.028Z,25.19
2018-07-01T14:06:04.947Z,24.41
2018-07-01T14:07:04.957Z,24.32
2018-07-01T14:08:57.877Z,24.51
2018-07-01T14:09:57.903Z,24.72
2018-07-01T14:11:50.850Z,24.62
2018-07-01T14:12:50.853Z,24.12
2018-07-01T14:14:43.775Z,24.22
2018-07-01T14:15:43.806Z,23.93
2018-07-01T14:17:36.743Z,24.22
2018-07-01T14:18:36.749Z,24.22
2018-07-01T14:20:29.692Z,23.07
2018-07-01T14:21:29.698Z,23.46
2018-07-01T14:23:22.677Z,23.36
2018-07-01T14:24:22.741Z,23.65
2018-07-01T14:26:15.780Z,23.55
2018-07-01T14:27:15.799Z,23.75
2018-07-01T14:29:08.689Z,22.97
2018-07-01T14:30:08.784Z,22.97
2018-07-01T14:32:01.876Z,23.07
2018-07-01T14:33:01.881Z,23.55
2018-07-01T14:34:54.803Z,24.04
2018-07-01T14:35:54.856Z,23.37
2018-07-01T14:37:48.914Z,22.00
2018-07-01T14:38:48.982Z,22.39
2018-07-01T14:40:42.370Z,23.07
2018-07-01T14:41:42.367Z,23.65
2018-07-01T14:43:35.336Z,23.16
2018-07-01T14:44:35.371Z,22.97
2018-07-01T14:46:28.269Z,22.97
2018-07-01T14:47:28.272Z,22.78
2018-07-01T14:49:22.274Z,22.97
2018-07-01T14:50:22.224Z,22.96
2018-07-01T14:52:15.702Z,23.16
2018-07-01T14:53:15.688Z,23.06
2018-07-01T14:55:08.627Z,23.54
2018-07-01T14:56:08.652Z,23.74
2018-07-01T14:58:01.595Z,22.57
2018-07-01T14:59:01.604Z,22.28
2018-07-01T15:00:54.532Z,23.16
2018-07-01T15:01:54.656Z,22.86
2018-07-01T15:03:47.499Z,22.19
2018-07-01T15:04:47.503Z,22.68
2018-07-01T15:06:40.653Z,21.71
2018-07-01T15:07:40.661Z,22.28
2018-07-01T15:09:33.813Z,21.61
2018-07-01T15:10:33.613Z,21.61
2018-07-01T15:12:26.641Z,21.99
2018-07-01T15:13:26.571Z,21.99
2018-07-01T15:15:19.575Z,21.51
2018-07-01T15:16:19.540Z,21.99
2018-07-01T15:18:12.652Z,21.51
2018-07-01T15:19:12.764Z,22.28
2018-07-01T15:21:05.556Z,21.89
2018-07-01T15:22:05.602Z,22.39
2018-07-01T15:23:58.547Z,21.91
2018-07-01T15:24:58.534Z,20.74
2018-07-01T15:26:51.949Z,21.41
2018-07-01T15:27:51.987Z,21.61
2018-07-01T15:29:44.951Z,21.70
2018-07-01T15:30:44.970Z,21.51
2018-07-01T15:32:38.955Z,21.31
2018-07-01T15:33:38.916Z,22.48
2018-07-01T15:35:32.819Z,22.38
2018-07-01T15:36:32.847Z,22.00
2018-07-01T15:38:25.828Z,22.39
2018-07-01T15:39:25.829Z,21.71
2018-07-01T15:41:18.761Z,20.84
2018-07-01T15:42:18.807Z,21.23
2018-07-01T15:44:11.740Z,20.94
2018-07-01T15:45:11.748Z,21.82
2018-07-01T15:47:04.712Z,21.24
2018-07-01T15:48:04.704Z,20.27
2018-07-01T15:49:57.707Z,20.16
2018-07-01T15:50:57.652Z,20.74
2018-07-01T15:52:50.641Z,21.02
2018-07-01T15:53:50.606Z,21.02
2018-07-01T15:55:43.770Z,22.58
2018-07-01T15:56:43.799Z,21.91
2018-07-01T15:58:37.251Z,21.03
2018-07-01T15:59:37.250Z,21.03
2018-07-01T16:01:30.171Z,21.42
2018-07-01T16:02:30.260Z,21.13
2018-07-01T16:04:23.168Z,20.84
2018-07-01T16:05:23.308Z,20.74
2018-07-01T16:07:16.230Z,20.65
2018-07-01T16:08:16.178Z,20.55
2018-07-01T16:10:09.116Z,20.94
2018-07-01T16:11:09.128Z,21.33
2018-07-01T16:13:02.049Z,20.65
2018-07-01T16:14:02.072Z,20.94
2018-07-01T16:15:55.028Z,20.17
2018-07-01T16:16:55.026Z,20.17
2018-07-01T16:18:47.979Z,20.17
2018-07-01T16:19:47.983Z,20.46
2018-07-01T16:21:41.107Z,20.07
2018-07-01T16:22:41.111Z,20.27
2018-07-01T16:24:34.088Z,20.46
2018-07-01T16:25:34.059Z,20.26
2018-07-01T16:27:27.010Z,20.16
2018-07-01T16:28:27.011Z,20.26
2018-07-01T16:30:19.954Z,20.55
2018-07-01T16:31:20.013Z,19.87
2018-07-01T16:33:13.919Z,20.94
2018-07-01T16:34:14.022Z,21.03
2018-07-01T16:36:07.364Z,20.64
2018-07-01T16:37:07.373Z,21.02
2018-07-01T16:39:00.314Z,22.19
2018-07-01T16:40:00.321Z,21.51
2018-07-01T16:41:53.269Z,21.03
2018-07-01T16:42:53.289Z,21.03
2018-07-01T16:44:46.219Z,21.42
2018-07-01T16:45:46.231Z,21.03
2018-07-01T16:47:39.346Z,20.84
2018-07-01T16:48:39.379Z,21.03
2018-07-01T16:50:32.319Z,20.84
2018-07-01T16:51:32.325Z,20.94
2018-07-01T16:53:26.301Z,20.84
2018-07-01T16:54:26.328Z,20.83
2018-07-01T16:56:19.283Z,21.02
2018-07-01T16:57:19.291Z,21.22
2018-07-01T16:59:12.216Z,21.41
2018-07-01T17:00:12.241Z,21.51
2018-07-01T17:02:05.183Z,21.23
2018-07-01T17:03:05.189Z,21.91
2018-07-01T17:04:58.130Z,21.71
2018-07-01T17:05:58.140Z,21.42
2018-07-01T17:07:51.068Z,20.84
2018-07-01T17:08:51.087Z,21.13
2018-07-01T17:10:44.028Z,19.96
2018-07-01T17:11:44.037Z,20.65
2018-07-01T17:13:37.164Z,21.03
2018-07-01T17:14:37.135Z,20.94
2018-07-01T17:16:30.070Z,20.94
2018-07-01T17:17:30.083Z,20.65
2018-07-01T17:19:22.998Z,21.81
2018-07-01T17:20:23.028Z,20.85
2018-07-01T17:22:16.012Z,21.03
2018-07-01T17:23:16.022Z,20.94
2018-07-01T17:28:12.635Z,21.22
2018-07-01T17:29:12.645Z,21.22
2018-07-01T17:31:05.689Z,21.69
2018-07-01T17:32:05.641Z,22.08
2018-07-01T17:33:58.582Z,22.08
2018-07-01T17:34:58.618Z,21.88
2018-07-01T17:36:51.559Z,21.98
2018-07-01T17:37:51.570Z,22.37
2018-07-01T17:39:44.490Z,21.59
2018-07-01T17:40:44.515Z,21.40
2018-07-01T17:42:37.452Z,21.59
2018-07-01T17:43:37.462Z,21.98
2018-07-01T17:45:30.381Z,21.69
2018-07-01T17:46:30.407Z,22.17
2018-07-01T17:48:23.401Z,21.70
2018-07-01T17:49:23.358Z,21.61
2018-07-01T17:51:16.282Z,21.51
2018-07-01T17:52:16.308Z,21.61
2018-07-01T17:54:09.460Z,22.09
2018-07-01T17:55:09.465Z,21.41
2018-07-01T17:57:02.413Z,22.00
2018-07-01T17:58:02.417Z,21.51
2018-07-01T17:59:55.379Z,21.24
2018-07-01T18:00:55.379Z,21.43
2018-07-01T18:02:48.359Z,20.86
2018-07-01T18:03:48.381Z,20.86
2018-07-01T18:05:41.293Z,20.09
2018-07-01T18:06:41.322Z,19.71
2018-07-01T18:08:34.264Z,19.90
2018-07-01T18:09:34.414Z,19.70
2018-07-01T18:11:27.235Z,20.10
2018-07-01T18:12:27.237Z,19.91
2018-07-01T18:14:20.169Z,19.80
2018-07-01T18:15:20.177Z,19.70
2018-07-01T18:17:13.098Z,19.89
2018-07-01T18:18:13.129Z,19.99
2018-07-01T18:20:06.081Z,19.79
2018-07-01T18:21:06.089Z,20.08
2018-07-01T18:23:27.410Z,19.78
2018-07-01T18:24:27.528Z,20.07
2018-07-01T18:25:51.978Z,20.65
2018-07-01T18:26:52.004Z,21.13
2018-07-01T18:28:55.770Z,21.51
2018-07-01T18:29:44.956Z,21.23
2018-07-01T18:31:38.423Z,21.03
2018-07-01T18:32:38.433Z,20.94
2018-07-01T18:34:31.359Z,20.94
2018-07-01T18:35:31.370Z,21.24
2018-07-01T18:37:24.286Z,20.28